Temp: 10.1°C   Baro: 1017.7mb
  Wind: 11.0mph   Dir: WNW (302°)
  Rain: 0.0mm (0.0mm/hr)
  Sun: 900W/m2  Humidity: 59%

Historic data

Bath Spa Weather Station Historical Data
Daily Summary for March 15, 2023 Units:  Both    English   Metric
Daily Weekly Monthly Yearly Custom
  High: Low: Average:
Temperature: 48.9 °F /  9.4 °C 30.6 °F /  -0.8 °C 39.8 °F /  4.3 °C
Dew Point: 47.3 °F /  8.5 °C 28.8 °F /  -1.8 °C 37.5 °F /  3.1 °C
Humidity: 95% 85% 92%
Wind Speed: 10mph /  16.1km/h - 3.1mph /  5km/h
Wind Gust: 20mph /  32.2km/h - -
Wind- - South
Pressure: 30.04 in /  1017.2 hPa 29.80 in /  1009 hPa -
Precipitation: 0.16 in /  4.06 mm    
Historical Graphs
 
 
Tabular Data for March 15, 2023
Time Temperature Dew Point Pressure Wind Wind Speed Wind Gust Humidity Rainfall Rate (Hourly) solar
00:09 34.9 °F /  1.6 °C 32.7 °F /  0.4 °C 30.00in /  1015.8hPa Calm   1mph /  1.6km/h 92% 0.00in /  0mm 0 W/m2
00:14 34.6 °F /  1.4 °C 32.4 °F /  0.2 °C 30.00in /  1015.8hPa WSW 0.2mph /  0.3km/h 1mph /  1.6km/h 92% 0.00in /  0mm 0 W/m2
00:19 34.4 °F /  1.3 °C 32.3 °F /  0.2 °C 30.00in /  1015.8hPa WSW 0.4mph /  0.6km/h 1mph /  1.6km/h 92% 0.00in /  0mm 0 W/m2
00:24 34.3 °F /  1.3 °C 32.2 °F /  0.1 °C 30.00in /  1015.8hPa WSW 0.7mph /  1.1km/h 2mph /  3.2km/h 92% 0.00in /  0mm 0 W/m2
00:29 34.3 °F /  1.3 °C 32.2 °F /  0.1 °C 30.00in /  1015.8hPa WSW 0.4mph /  0.6km/h 2mph /  3.2km/h 92% 0.01in /  0.25mm 0 W/m2
00:34 34.3 °F /  1.3 °C 32.2 °F /  0.1 °C 30.00in /  1015.8hPa WSW 0.6mph /  1km/h 2mph /  3.2km/h 92% 0.01in /  0.25mm 0 W/m2
00:39 34.2 °F /  1.2 °C 32 °F /  0 °C 30.00in /  1015.8hPa WSW 1.1mph /  1.8km/h 2mph /  3.2km/h 92% 0.01in /  0.25mm 0 W/m2
00:44 34 °F /  1.1 °C 31.8 °F /  -0.1 °C 30.00in /  1015.8hPa Calm   1mph /  1.6km/h 92% 0.01in /  0.25mm 0 W/m2
00:49 33.8 °F /  1 °C 31.6 °F /  -0.2 °C 30.01in /  1016.1hPa Calm   1mph /  1.6km/h 92% 0.01in /  0.25mm 0 W/m2
00:54 34 °F /  1.1 °C 31.8 °F /  -0.1 °C 30.01in /  1016.1hPa WSW 0.6mph /  1km/h 3mph /  4.8km/h 92% 0.01in /  0.25mm 0 W/m2
00:59 34 °F /  1.1 °C 31.8 °F /  -0.1 °C 30.00in /  1015.8hPa WSW 1.8mph /  2.9km/h 3mph /  4.8km/h 92% 0.01in /  0.25mm 0 W/m2
01:04 33.8 °F /  1 °C 31.6 °F /  -0.2 °C 30.01in /  1016.1hPa WSW 0.9mph /  1.4km/h 2mph /  3.2km/h 92% 0.01in /  0.25mm 0 W/m2
01:09 33.8 °F /  1 °C 31.6 °F /  -0.2 °C 30.01in /  1016.1hPa WSW 0.4mph /  0.6km/h 2mph /  3.2km/h 92% 0.01in /  0.25mm 0 W/m2
01:14 33.7 °F /  0.9 °C 31.5 °F /  -0.3 °C 30.01in /  1016.1hPa Calm   1mph /  1.6km/h 92% 0.01in /  0.25mm 0 W/m2
01:19 33.6 °F /  0.9 °C 31.5 °F /  -0.3 °C 30.01in /  1016.1hPa Calm     92% 0.01in /  0.25mm 0 W/m2
01:24 33.4 °F /  0.8 °C 31.3 °F /  -0.4 °C 30.01in /  1016.1hPa WSW 0.2mph /  0.3km/h 1mph /  1.6km/h 92% 0.01in /  0.25mm 0 W/m2
01:28 33.3 °F /  0.7 °C 31.2 °F /  -0.4 °C 30.01in /  1016.1hPa WSW 0.5mph /  0.8km/h 2mph /  3.2km/h 92% 0.00in /  0mm 0 W/m2
01:34 33.3 °F /  0.7 °C 31.1 °F /  -0.5 °C 30.02in /  1016.5hPa WSW 0.9mph /  1.4km/h 2mph /  3.2km/h 92% 0.00in /  0mm 0 W/m2
01:39 33.3 °F /  0.7 °C 31.1 °F /  -0.5 °C 30.02in /  1016.5hPa WSW 1.3mph /  2.1km/h 2mph /  3.2km/h 92% 0.00in /  0mm 0 W/m2
01:44 33.3 °F /  0.7 °C 31.1 °F /  -0.5 °C 30.02in /  1016.5hPa WSW 0.4mph /  0.6km/h 2mph /  3.2km/h 92% 0.00in /  0mm 0 W/m2
01:49 33.2 °F /  0.7 °C 31.2 °F /  -0.4 °C 30.01in /  1016.1hPa WSW 0.4mph /  0.6km/h 1mph /  1.6km/h 92.6% 0.00in /  0mm 0 W/m2
01:54 33 °F /  0.6 °C 31.2 °F /  -0.4 °C 30.01in /  1016.1hPa WSW 1.6mph /  2.6km/h 2mph /  3.2km/h 93% 0.00in /  0mm 0 W/m2
01:59 33 °F /  0.6 °C 31.2 °F /  -0.4 °C 30.01in /  1016.1hPa Calm   2mph /  3.2km/h 93% 0.00in /  0mm 0 W/m2
02:04 32.7 °F /  0.4 °C 30.8 °F /  -0.7 °C 30.01in /  1016.1hPa WSW 0.2mph /  0.3km/h 1mph /  1.6km/h 92.6% 0.00in /  0mm 0 W/m2
02:09 32.7 °F /  0.4 °C 30.9 °F /  -0.6 °C 30.01in /  1016.1hPa WSW 0.6mph /  1km/h 2mph /  3.2km/h 93% 0.00in /  0mm 0 W/m2
02:14 32.6 °F /  0.3 °C 30.8 °F /  -0.7 °C 30.02in /  1016.5hPa WSW 1.4mph /  2.3km/h 3mph /  4.8km/h 93% 0.00in /  0mm 0 W/m2
02:19 32.2 °F /  0.1 °C 30.4 °F /  -0.9 °C 30.02in /  1016.5hPa WSW 2mph /  3.2km/h 3mph /  4.8km/h 93% 0.00in /  0mm 0 W/m2
02:24 32.2 °F /  0.1 °C 30.4 °F /  -0.9 °C 30.02in /  1016.5hPa WSW 2.4mph /  3.9km/h 4mph /  6.4km/h 93% 0.00in /  0mm 0 W/m2
02:29 32.2 °F /  0.1 °C 30.4 °F /  -0.9 °C 30.02in /  1016.5hPa WSW 2.7mph /  4.3km/h 4mph /  6.4km/h 93% 0.00in /  0mm 0 W/m2
02:34 32.4 °F /  0.2 °C 30.6 °F /  -0.8 °C 30.02in /  1016.5hPa Calm   3mph /  4.8km/h 93% 0.00in /  0mm 0 W/m2
02:39 32.4 °F /  0.2 °C 30.6 °F /  -0.8 °C 30.02in /  1016.5hPa WSW 0.8mph /  1.3km/h 2mph /  3.2km/h 93% 0.00in /  0mm 0 W/m2
02:44 32.2 °F /  0.1 °C 30.4 °F /  -0.9 °C 30.02in /  1016.5hPa WSW 0.9mph /  1.4km/h 2mph /  3.2km/h 93% 0.00in /  0mm 0 W/m2
02:49 32 °F /  0 °C 30.2 °F /  -1 °C 30.01in /  1016.1hPa WSW 1.6mph /  2.6km/h 3mph /  4.8km/h 93% 0.00in /  0mm 0 W/m2
02:54 32.1 °F /  0.1 °C 30.3 °F /  -0.9 °C 30.01in /  1016.1hPa WSW 0.9mph /  1.4km/h 2mph /  3.2km/h 93% 0.00in /  0mm 0 W/m2
02:59 32 °F /  0 °C 30.2 °F /  -1 °C 30.01in /  1016.1hPa Calm   1mph /  1.6km/h 93% 0.00in /  0mm 0 W/m2
03:04 32 °F /  0 °C 30.2 °F /  -1 °C 30.02in /  1016.5hPa Calm   1mph /  1.6km/h 93% 0.00in /  0mm 0 W/m2
03:09 31.9 °F /  -0.1 °C 30.1 °F /  -1.1 °C 30.02in /  1016.5hPa Calm   1mph /  1.6km/h 93% 0.00in /  0mm 0 W/m2
03:14 31.8 °F /  -0.1 °C 30 °F /  -1.1 °C 30.02in /  1016.5hPa Calm     93% 0.00in /  0mm 0 W/m2
03:19 31.8 °F /  -0.1 °C 30 °F /  -1.1 °C 30.02in /  1016.5hPa WSW 0.4mph /  0.6km/h 1mph /  1.6km/h 93% 0.00in /  0mm 0 W/m2
03:24 31.6 °F /  -0.2 °C 29.8 °F /  -1.2 °C 30.02in /  1016.5hPa WSW 0.2mph /  0.3km/h 2mph /  3.2km/h 93% 0.00in /  0mm 0 W/m2
03:29 31.5 °F /  -0.3 °C 29.7 °F /  -1.3 °C 30.02in /  1016.5hPa Calm     93% 0.00in /  0mm 0 W/m2
03:34 31.4 °F /  -0.3 °C 29.6 °F /  -1.3 °C 30.02in /  1016.5hPa Calm     93% 0.00in /  0mm 0 W/m2
03:39 31.3 °F /  -0.4 °C 29.5 °F /  -1.4 °C 30.02in /  1016.5hPa Calm     93% 0.00in /  0mm 0 W/m2
03:44 31.3 °F /  -0.4 °C 29.5 °F /  -1.4 °C 30.03in /  1016.8hPa WSW 0.4mph /  0.6km/h 2mph /  3.2km/h 93% 0.00in /  0mm 0 W/m2
03:49 31.1 °F /  -0.5 °C 29.3 °F /  -1.5 °C 30.03in /  1016.8hPa WSW 0.9mph /  1.4km/h 2mph /  3.2km/h 93% 0.00in /  0mm 0 W/m2
03:54 31.1 °F /  -0.5 °C 29.3 °F /  -1.5 °C 30.02in /  1016.5hPa WSW 0.5mph /  0.8km/h 1mph /  1.6km/h 93% 0.00in /  0mm 0 W/m2
03:59 31.2 °F /  -0.4 °C 29.4 °F /  -1.4 °C 30.02in /  1016.5hPa WSW 0.4mph /  0.6km/h 1mph /  1.6km/h 93% 0.00in /  0mm 0 W/m2
04:04 31.2 °F /  -0.4 °C 29.4 °F /  -1.4 °C 30.02in /  1016.5hPa Calm     93% 0.00in /  0mm 0 W/m2
04:09 31.1 °F /  -0.5 °C 29.3 °F /  -1.5 °C 30.02in /  1016.5hPa Calm     93% 0.00in /  0mm 0 W/m2
04:14 31 °F /  -0.6 °C 29.2 °F /  -1.6 °C 30.02in /  1016.5hPa Calm     93% 0.00in /  0mm 0 W/m2
04:19 30.9 °F /  -0.6 °C 29.1 °F /  -1.6 °C 30.02in /  1016.5hPa Calm     93% 0.00in /  0mm 0 W/m2
04:24 30.9 °F /  -0.6 °C 29.1 °F /  -1.6 °C 30.02in /  1016.5hPa Calm     93% 0.00in /  0mm 0 W/m2
04:29 30.7 °F /  -0.7 °C 28.9 °F /  -1.7 °C 30.03in /  1016.8hPa WSW 0.2mph /  0.3km/h 1mph /  1.6km/h 93% 0.00in /  0mm 0 W/m2
04:34 30.7 °F /  -0.7 °C 28.9 °F /  -1.7 °C 30.02in /  1016.5hPa Calm     93% 0.00in /  0mm 0 W/m2
04:39 30.7 °F /  -0.7 °C 28.9 °F /  -1.7 °C 30.02in /  1016.5hPa WSW 0.2mph /  0.3km/h 1mph /  1.6km/h 93% 0.00in /  0mm 0 W/m2
04:44 30.7 °F /  -0.7 °C 28.9 °F /  -1.7 °C 30.02in /  1016.5hPa Calm   1mph /  1.6km/h 93% 0.00in /  0mm 0 W/m2
04:49 30.6 °F /  -0.8 °C 28.8 °F /  -1.8 °C 30.02in /  1016.5hPa Calm     93% 0.00in /  0mm 0 W/m2
04:54 30.6 °F /  -0.8 °C 28.8 °F /  -1.8 °C 30.02in /  1016.5hPa Calm     93% 0.00in /  0mm 0 W/m2
04:59 30.7 °F /  -0.7 °C 28.9 °F /  -1.7 °C 30.02in /  1016.5hPa Calm     93% 0.00in /  0mm 0 W/m2
05:04 30.7 °F /  -0.7 °C 29.2 °F /  -1.6 °C 30.02in /  1016.5hPa WSW 0.2mph /  0.3km/h 1mph /  1.6km/h 93.6% 0.00in /  0mm 0 W/m2
05:09 30.8 °F /  -0.7 °C 29.4 °F /  -1.4 °C 30.03in /  1016.8hPa Calm   1mph /  1.6km/h 94% 0.00in /  0mm 0 W/m2
05:14 30.7 °F /  -0.7 °C 28.9 °F /  -1.7 °C 30.03in /  1016.8hPa Calm   1mph /  1.6km/h 93% 0.00in /  0mm 0 W/m2
05:19 30.7 °F /  -0.7 °C 29.1 °F /  -1.6 °C 30.03in /  1016.8hPa Calm     93.4% 0.00in /  0mm 0 W/m2
05:24 30.7 °F /  -0.7 °C 29 °F /  -1.7 °C 30.03in /  1016.8hPa Calm     93.2% 0.00in /  0mm 0 W/m2
05:29 30.7 °F /  -0.7 °C 29.2 °F /  -1.6 °C 30.03in /  1016.8hPa Calm     93.8% 0.00in /  0mm 0 W/m2
05:34 30.7 °F /  -0.7 °C 29.3 °F /  -1.5 °C 30.03in /  1016.8hPa Calm     94% 0.00in /  0mm 0 W/m2
05:39 30.7 °F /  -0.7 °C 29.3 °F /  -1.5 °C 30.03in /  1016.8hPa Calm     94% 0.00in /  0mm 0 W/m2
05:44 30.7 °F /  -0.7 °C 29.3 °F /  -1.5 °C 30.03in /  1016.8hPa Calm     94% 0.00in /  0mm 0 W/m2
05:49 30.7 °F /  -0.7 °C 29.3 °F /  -1.5 °C 30.03in /  1016.8hPa Calm     94% 0.00in /  0mm 0 W/m2
05:54 30.7 °F /  -0.7 °C 29.3 °F /  -1.5 °C 30.03in /  1016.8hPa Calm     94% 0.00in /  0mm 0 W/m2
05:59 30.7 °F /  -0.7 °C 29.3 °F /  -1.5 °C 30.03in /  1016.8hPa Calm     94% 0.00in /  0mm 0 W/m2
06:04 30.7 °F /  -0.7 °C 29.3 °F /  -1.5 °C 30.03in /  1016.8hPa Calm     94% 0.00in /  0mm 0 W/m2
06:09 30.7 °F /  -0.7 °C 29.3 °F /  -1.5 °C 30.03in /  1016.8hPa WSW 0.4mph /  0.6km/h 2mph /  3.2km/h 94% 0.00in /  0mm 0 W/m2
06:14 30.7 °F /  -0.7 °C 29.3 °F /  -1.5 °C 30.03in /  1016.8hPa WSW 0.5mph /  0.8km/h 1mph /  1.6km/h 94% 0.00in /  0mm 0 W/m2
06:19 30.7 °F /  -0.7 °C 29.3 °F /  -1.5 °C 30.04in /  1017.2hPa Calm   1mph /  1.6km/h 94% 0.00in /  0mm 0 W/m2
06:24 30.7 °F /  -0.7 °C 29.3 °F /  -1.5 °C 30.04in /  1017.2hPa WSW 0.4mph /  0.6km/h 1mph /  1.6km/h 94% 0.00in /  0mm 0 W/m2
06:29 30.7 °F /  -0.7 °C 29.3 °F /  -1.5 °C 30.04in /  1017.2hPa WSW 0.4mph /  0.6km/h 1mph /  1.6km/h 94% 0.00in /  0mm 5 W/m2
06:34 30.7 °F /  -0.7 °C 29.3 °F /  -1.5 °C 30.04in /  1017.2hPa WSW 0.4mph /  0.6km/h 2mph /  3.2km/h 94% 0.00in /  0mm 9 W/m2
06:39 30.7 °F /  -0.7 °C 29.3 °F /  -1.5 °C 30.04in /  1017.2hPa WSW 0.9mph /  1.4km/h 2mph /  3.2km/h 94% 0.00in /  0mm 12 W/m2
06:44 30.7 °F /  -0.7 °C 29.3 °F /  -1.5 °C 30.04in /  1017.2hPa WSW 0.5mph /  0.8km/h 2mph /  3.2km/h 94% 0.00in /  0mm 16 W/m2
06:49 30.7 °F /  -0.7 °C 29.3 °F /  -1.5 °C 30.04in /  1017.2hPa WSW 0.2mph /  0.3km/h 2mph /  3.2km/h 94% 0.00in /  0mm 21 W/m2
06:54 30.7 °F /  -0.7 °C 29.3 °F /  -1.5 °C 30.04in /  1017.2hPa WSW 0.2mph /  0.3km/h 1mph /  1.6km/h 94% 0.00in /  0mm 25 W/m2
06:59 30.7 °F /  -0.7 °C 29.3 °F /  -1.5 °C 30.04in /  1017.2hPa WSW 0.4mph /  0.6km/h 1mph /  1.6km/h 94% 0.00in /  0mm 30 W/m2
07:04 30.7 °F /  -0.7 °C 29.3 °F /  -1.5 °C 30.04in /  1017.2hPa WSW 0.2mph /  0.3km/h 1mph /  1.6km/h 94% 0.00in /  0mm 37 W/m2
07:09 30.8 °F /  -0.7 °C 29.4 °F /  -1.4 °C 30.04in /  1017.2hPa WSW 0.4mph /  0.6km/h 1mph /  1.6km/h 94% 0.00in /  0mm 44 W/m2
07:14 30.9 °F /  -0.6 °C 29.5 °F /  -1.4 °C 30.04in /  1017.2hPa Calm   1mph /  1.6km/h 94% 0.00in /  0mm 47 W/m2
07:19 30.9 °F /  -0.6 °C 29.5 °F /  -1.4 °C 30.04in /  1017.2hPa Calm   1mph /  1.6km/h 94% 0.00in /  0mm 49 W/m2
07:24 31 °F /  -0.6 °C 29.6 °F /  -1.3 °C 30.04in /  1017.2hPa Calm   1mph /  1.6km/h 94% 0.00in /  0mm 53 W/m2
07:29 31.3 °F /  -0.4 °C 29.8 °F /  -1.2 °C 30.04in /  1017.2hPa Calm     94% 0.00in /  0mm 56 W/m2
07:34 31.5 °F /  -0.3 °C 30 °F /  -1.1 °C 30.04in /  1017.2hPa Calm     94% 0.00in /  0mm 67 W/m2
07:39 32 °F /  0 °C 30.5 °F /  -0.8 °C 30.04in /  1017.2hPa Calm     94% 0.00in /  0mm 83 W/m2
07:44 34.3 °F /  1.3 °C 32.7 °F /  0.4 °C 30.04in /  1017.2hPa Calm     94% 0.01in /  0.25mm 91 W/m2
07:49 36.1 °F /  2.3 °C 34.7 °F /  1.5 °C 30.04in /  1017.2hPa Calm     94.6% 0.01in /  0.25mm 91 W/m2
07:54 37.4 °F /  3 °C 36.1 °F /  2.3 °C 30.04in /  1017.2hPa Calm     95% 0.01in /  0.25mm 95 W/m2
07:59 37 °F /  2.8 °C 35.7 °F /  2.1 °C 30.04in /  1017.2hPa WSW 0.5mph /  0.8km/h 2mph /  3.2km/h 95% 0.01in /  0.25mm 102 W/m2
08:04 37.1 °F /  2.8 °C 35.8 °F /  2.1 °C 30.04in /  1017.2hPa Calm   1mph /  1.6km/h 94.8% 0.01in /  0.25mm 102 W/m2
08:09 37.5 °F /  3.1 °C 36.2 °F /  2.3 °C 30.04in /  1017.2hPa WSW 0.4mph /  0.6km/h 1mph /  1.6km/h 95% 0.01in /  0.25mm 102 W/m2
08:14 36.6 °F /  2.6 °C 35.1 °F /  1.7 °C 30.04in /  1017.2hPa WSW 0.7mph /  1.1km/h 1mph /  1.6km/h 94.4% 0.01in /  0.25mm 105 W/m2
08:19 35.9 °F /  2.2 °C 34.5 °F /  1.4 °C 30.04in /  1017.2hPa WSW 1.6mph /  2.6km/h 3mph /  4.8km/h 94.4% 0.01in /  0.25mm 105 W/m2
08:24 35.5 °F /  1.9 °C 33.9 °F /  1.1 °C 30.04in /  1017.2hPa WSW 0.4mph /  0.6km/h 2mph /  3.2km/h 94% 0.01in /  0.25mm 113 W/m2
08:29 35.4 °F /  1.9 °C 33.8 °F /  1 °C 30.04in /  1017.2hPa Calm     94% 0.01in /  0.25mm 111 W/m2
08:34 35.4 °F /  1.9 °C 33.8 °F /  1 °C 30.04in /  1017.2hPa WSW 0.8mph /  1.3km/h 2mph /  3.2km/h 94% 0.01in /  0.25mm 105 W/m2
08:39 35.4 °F /  1.9 °C 33.8 °F /  1 °C 30.04in /  1017.2hPa WSW 0.5mph /  0.8km/h 2mph /  3.2km/h 94% 0.01in /  0.25mm 111 W/m2
08:44 35.5 °F /  1.9 °C 34 °F /  1.1 °C 30.04in /  1017.2hPa SW 1mph /  1.6km/h 3mph /  4.8km/h 94.2% 0.01in /  0.25mm 114 W/m2
08:49 35.7 °F /  2.1 °C 34.1 °F /  1.2 °C 30.04in /  1017.2hPa SSE 2.8mph /  4.5km/h 8mph /  12.9km/h 94% 0.00in /  0mm 116 W/m2
08:54 35.6 °F /  2 °C 34 °F /  1.1 °C 30.04in /  1017.2hPa ESE 1.6mph /  2.6km/h 4mph /  6.4km/h 94% 0.00in /  0mm 123 W/m2
08:59 35.7 °F /  2.1 °C 34.1 °F /  1.2 °C 30.04in /  1017.2hPa ESE 2.1mph /  3.4km/h 4mph /  6.4km/h 94% 0.00in /  0mm 135 W/m2
09:04 36 °F /  2.2 °C 34.6 °F /  1.4 °C 30.04in /  1017.2hPa ESE 1.1mph /  1.8km/h 4mph /  6.4km/h 94.6% 0.00in /  0mm 148 W/m2
09:09 36.1 °F /  2.3 °C 34.9 °F /  1.6 °C 30.04in /  1017.2hPa ESE 1.7mph /  2.7km/h 4mph /  6.4km/h 95% 0.00in /  0mm 149 W/m2
09:14 36.2 °F /  2.3 °C 34.7 °F /  1.5 °C 30.04in /  1017.2hPa ESE 2.8mph /  4.5km/h 5mph /  8km/h 94.4% 0.00in /  0mm 148 W/m2
09:19 36.5 °F /  2.5 °C 35.1 °F /  1.7 °C 30.04in /  1017.2hPa ESE 2.4mph /  3.9km/h 4mph /  6.4km/h 94.6% 0.00in /  0mm 155 W/m2
09:24 36.9 °F /  2.7 °C 35.4 °F /  1.9 °C 30.04in /  1017.2hPa ESE 1.3mph /  2.1km/h 4mph /  6.4km/h 94.6% 0.00in /  0mm 169 W/m2
09:29 36.9 °F /  2.7 °C 35.2 °F /  1.8 °C 30.04in /  1017.2hPa ESE 0.6mph /  1km/h 4mph /  6.4km/h 94% 0.00in /  0mm 179 W/m2
09:34 37 °F /  2.8 °C 35.4 °F /  1.9 °C 30.04in /  1017.2hPa ESE 1.3mph /  2.1km/h 3mph /  4.8km/h 94% 0.00in /  0mm 181 W/m2
09:39 37.5 °F /  3.1 °C 36.2 °F /  2.3 °C 30.04in /  1017.2hPa ESE 1.7mph /  2.7km/h 3mph /  4.8km/h 94.8% 0.00in /  0mm 181 W/m2
09:44 37.8 °F /  3.2 °C 36.3 °F /  2.4 °C 30.04in /  1017.2hPa ESE 1.7mph /  2.7km/h 4mph /  6.4km/h 94.2% 0.00in /  0mm 188 W/m2
09:49 37.9 °F /  3.3 °C 36.6 °F /  2.6 °C 30.04in /  1017.2hPa ESE 1.7mph /  2.7km/h 4mph /  6.4km/h 94.8% 0.00in /  0mm 204 W/m2
09:54 38.2 °F /  3.4 °C 36.9 °F /  2.7 °C 30.04in /  1017.2hPa ESE 2.3mph /  3.7km/h 5mph /  8km/h 94.6% 0.00in /  0mm 206 W/m2
09:59 38.6 °F /  3.7 °C 37.2 °F /  2.9 °C 30.04in /  1017.2hPa ESE 1.7mph /  2.7km/h 5mph /  8km/h 94.5% 0.00in /  0mm 206 W/m2
10:04 38.8 °F /  3.8 °C 37.6 °F /  3.1 °C 30.04in /  1017.2hPa ESE 2.1mph /  3.4km/h 4mph /  6.4km/h 95% 0.00in /  0mm 204 W/m2
10:09 39.1 °F /  3.9 °C 37.5 °F /  3.1 °C 30.04in /  1017.2hPa ESE 1.3mph /  2.1km/h 3mph /  4.8km/h 94.2% 0.00in /  0mm 214 W/m2
10:14 39.4 °F /  4.1 °C 38 °F /  3.3 °C 30.04in /  1017.2hPa ESE 0.6mph /  1km/h 2mph /  3.2km/h 94.8% 0.00in /  0mm 216 W/m2
10:19 39.7 °F /  4.3 °C 38 °F /  3.3 °C 30.03in /  1016.8hPa ESE 1.4mph /  2.3km/h 4mph /  6.4km/h 94% 0.00in /  0mm 214 W/m2
10:24 39.9 °F /  4.4 °C 38.6 °F /  3.7 °C 30.03in /  1016.8hPa ESE 1.1mph /  1.8km/h 4mph /  6.4km/h 94.8% 0.00in /  0mm 213 W/m2
10:29 39.9 °F /  4.4 °C 38.6 °F /  3.7 °C 30.03in /  1016.8hPa East 0.8mph /  1.3km/h 3mph /  4.8km/h 94.8% 0.00in /  0mm 214 W/m2
10:34 39.9 °F /  4.4 °C 38.3 °F /  3.5 °C 30.03in /  1016.8hPa East 0.9mph /  1.4km/h 3mph /  4.8km/h 94% 0.00in /  0mm 216 W/m2
10:39 39.9 °F /  4.4 °C 38.3 °F /  3.5 °C 30.03in /  1016.8hPa ESE 2.3mph /  3.7km/h 5mph /  8km/h 94% 0.00in /  0mm 230 W/m2
10:44 40.3 °F /  4.6 °C 38.6 °F /  3.7 °C 30.03in /  1016.8hPa ESE 1.7mph /  2.7km/h 7mph /  11.3km/h 94% 0.00in /  0mm 241 W/m2
10:49 40.5 °F /  4.7 °C 38.8 °F /  3.8 °C 30.03in /  1016.8hPa SE 4mph /  6.4km/h 5mph /  8km/h 94% 0.00in /  0mm 244 W/m2
10:54 40.5 °F /  4.7 °C 38.8 °F /  3.8 °C 30.03in /  1016.8hPa SE 2.4mph /  3.9km/h 4mph /  6.4km/h 94% 0.00in /  0mm 248 W/m2
10:59 40.7 °F /  4.8 °C 39.1 °F /  3.9 °C 30.03in /  1016.8hPa SE 2.8mph /  4.5km/h 5mph /  8km/h 94% 0.00in /  0mm 248 W/m2
11:04 41 °F /  5 °C 39.4 °F /  4.1 °C 30.03in /  1016.8hPa SE 2.4mph /  3.9km/h 4mph /  6.4km/h 93.8% 0.00in /  0mm 253 W/m2
11:09 41.4 °F /  5.2 °C 39.6 °F /  4.2 °C 30.03in /  1016.8hPa SE 1.3mph /  2.1km/h 4mph /  6.4km/h 93% 0.00in /  0mm 250 W/m2
11:14 41.6 °F /  5.3 °C 39.8 °F /  4.3 °C 30.03in /  1016.8hPa SE 2.9mph /  4.7km/h 5mph /  8km/h 93% 0.00in /  0mm 236 W/m2
11:19 42 °F /  5.6 °C 40.2 °F /  4.6 °C 30.03in /  1016.8hPa SE 2.5mph /  4km/h 6mph /  9.7km/h 93% 0.00in /  0mm 237 W/m2
11:24 42.2 °F /  5.7 °C 40.2 °F /  4.6 °C 30.03in /  1016.8hPa SE 2.1mph /  3.4km/h 5mph /  8km/h 92.4% 0.00in /  0mm 227 W/m2
11:29 42.3 °F /  5.7 °C 40.1 °F /  4.5 °C 30.03in /  1016.8hPa SE 2mph /  3.2km/h 4mph /  6.4km/h 92% 0.00in /  0mm 218 W/m2
11:34 42.4 °F /  5.8 °C 40.2 °F /  4.6 °C 30.03in /  1016.8hPa SSE 4.5mph /  7.2km/h 8mph /  12.9km/h 91.8% 0.00in /  0mm 206 W/m2
11:39 42.5 °F /  5.8 °C 40 °F /  4.4 °C 30.03in /  1016.8hPa SSE 2.6mph /  4.2km/h 6mph /  9.7km/h 91% 0.00in /  0mm 193 W/m2
11:44 42.8 °F /  6 °C 40.2 °F /  4.6 °C 30.03in /  1016.8hPa South 2.8mph /  4.5km/h 6mph /  9.7km/h 90.4% 0.00in /  0mm 192 W/m2
11:49 43.1 °F /  6.2 °C 40.4 °F /  4.7 °C 30.02in /  1016.5hPa SSE 4.3mph /  6.9km/h 9mph /  14.5km/h 90% 0.00in /  0mm 211 W/m2
11:53 43.3 °F /  6.3 °C 40.5 °F /  4.7 °C 30.02in /  1016.5hPa SE 3.5mph /  5.6km/h 9mph /  14.5km/h 89.8% 0.00in /  0mm 216 W/m2
11:59 43.5 °F /  6.4 °C 40.5 °F /  4.7 °C 30.02in /  1016.5hPa SSE 4.9mph /  7.9km/h 9mph /  14.5km/h 89% 0.00in /  0mm 229 W/m2
12:04 43.6 °F /  6.4 °C 40.5 °F /  4.7 °C 30.02in /  1016.5hPa South 5.1mph /  8.2km/h 10mph /  16.1km/h 88.2% 0.00in /  0mm 230 W/m2
12:09 44 °F /  6.7 °C 40.7 °F /  4.8 °C 30.02in /  1016.5hPa South 3.3mph /  5.3km/h 7mph /  11.3km/h 88% 0.00in /  0mm 227 W/m2
12:14 44.2 °F /  6.8 °C 41 °F /  5 °C 30.02in /  1016.5hPa South 3.9mph /  6.3km/h 9mph /  14.5km/h 88% 0.00in /  0mm 207 W/m2
12:19 44.1 °F /  6.7 °C 40.8 °F /  4.9 °C 30.02in /  1016.5hPa SSE 4mph /  6.4km/h 7mph /  11.3km/h 87.8% 0.00in /  0mm 234 W/m2
12:24 44.1 °F /  6.7 °C 40.5 °F /  4.7 °C 30.02in /  1016.5hPa SSE 5mph /  8km/h 9mph /  14.5km/h 87% 0.00in /  0mm 290 W/m2
12:29 44.1 °F /  6.7 °C 40.5 °F /  4.7 °C 30.02in /  1016.5hPa SSE 4.6mph /  7.4km/h 9mph /  14.5km/h 87% 0.00in /  0mm 287 W/m2
12:34 44.2 °F /  6.8 °C 40.6 °F /  4.8 °C 30.02in /  1016.5hPa SSE 3.9mph /  6.3km/h 8mph /  12.9km/h 87% 0.00in /  0mm 264 W/m2
12:39 44.2 °F /  6.8 °C 40.6 °F /  4.8 °C 30.02in /  1016.5hPa SSE 4.9mph /  7.9km/h 8mph /  12.9km/h 87% 0.00in /  0mm 276 W/m2
12:44 44.2 °F /  6.8 °C 40.6 °F /  4.8 °C 30.01in /  1016.1hPa SSE 4.4mph /  7.1km/h 9mph /  14.5km/h 87% 0.00in /  0mm 225 W/m2
12:49 44.4 °F /  6.9 °C 40.8 °F /  4.9 °C 30.01in /  1016.1hPa SSE 4.9mph /  7.9km/h 9mph /  14.5km/h 87% 0.00in /  0mm 155 W/m2
12:54 44.4 °F /  6.9 °C 41 °F /  5 °C 30.01in /  1016.1hPa SSE 4.7mph /  7.6km/h 7mph /  11.3km/h 87.4% 0.00in /  0mm 213 W/m2
12:59 44.4 °F /  6.9 °C 41.2 °F /  5.1 °C 30.01in /  1016.1hPa SSE 3mph /  4.8km/h 7mph /  11.3km/h 88% 0.00in /  0mm 199 W/m2
13:04 44.5 °F /  6.9 °C 41.2 °F /  5.1 °C 30.01in /  1016.1hPa SSE 4.2mph /  6.8km/h 8mph /  12.9km/h 88% 0.00in /  0mm 109 W/m2
13:09 44.4 °F /  6.9 °C 41.2 °F /  5.1 °C 30.00in /  1015.8hPa SE 3.6mph /  5.8km/h 7mph /  11.3km/h 88% 0.00in /  0mm 90 W/m2
13:14 44.4 °F /  6.9 °C 41.2 °F /  5.1 °C 30.00in /  1015.8hPa SE 4.5mph /  7.2km/h 9mph /  14.5km/h 88% 0.00in /  0mm 130 W/m2
13:19 44.2 °F /  6.8 °C 41 °F /  5 °C 29.99in /  1015.5hPa SSE 3.9mph /  6.3km/h 8mph /  12.9km/h 88% 0.00in /  0mm 174 W/m2
13:24 44.3 °F /  6.8 °C 41.1 °F /  5.1 °C 29.99in /  1015.5hPa SSE 2.8mph /  4.5km/h 7mph /  11.3km/h 88% 0.00in /  0mm 179 W/m2
13:29 44.4 °F /  6.9 °C 41.3 °F /  5.2 °C 29.99in /  1015.5hPa South 3.3mph /  5.3km/h 7mph /  11.3km/h 88.6% 0.00in /  0mm 246 W/m2
13:34 44.5 °F /  6.9 °C 41.4 °F /  5.2 °C 29.99in /  1015.5hPa SSE 3.9mph /  6.3km/h 8mph /  12.9km/h 89% 0.00in /  0mm 246 W/m2
13:39 44.7 °F /  7.1 °C 41.6 °F /  5.3 °C 29.99in /  1015.5hPa SSE 3.2mph /  5.1km/h 6mph /  9.7km/h 89% 0.00in /  0mm 183 W/m2
13:44 44.9 °F /  7.2 °C 41.8 °F /  5.4 °C 29.98in /  1015.1hPa SSE 3.3mph /  5.3km/h 7mph /  11.3km/h 89% 0.00in /  0mm 105 W/m2
13:49 44.8 °F /  7.1 °C 41.7 °F /  5.4 °C 29.98in /  1015.1hPa SSE 4.8mph /  7.7km/h 7mph /  11.3km/h 89% 0.00in /  0mm 91 W/m2
13:54 44.9 °F /  7.2 °C 41.8 °F /  5.4 °C 29.98in /  1015.1hPa SSE 2.1mph /  3.4km/h 6mph /  9.7km/h 89% 0.00in /  0mm 148 W/m2
13:59 45 °F /  7.2 °C 41.9 °F /  5.5 °C 29.98in /  1015.1hPa SSE 2.8mph /  4.5km/h 5mph /  8km/h 89% 0.00in /  0mm 167 W/m2
14:04 45 °F /  7.2 °C 42 °F /  5.6 °C 29.98in /  1015.1hPa SSE 4.3mph /  6.9km/h 10mph /  16.1km/h 89% 0.00in /  0mm 139 W/m2
14:09 45.2 °F /  7.3 °C 42.2 °F /  5.7 °C 29.98in /  1015.1hPa South 1.4mph /  2.3km/h 6mph /  9.7km/h 89% 0.01in /  0.25mm 118 W/m2
14:14 45.4 °F /  7.4 °C 42 °F /  5.6 °C 29.98in /  1015.1hPa South 2.1mph /  3.4km/h 4mph /  6.4km/h 88% 0.01in /  0.25mm 105 W/m2
14:19 45.2 °F /  7.3 °C 41.8 °F /  5.4 °C 29.97in /  1014.8hPa South 4.1mph /  6.6km/h 9mph /  14.5km/h 88% 0.01in /  0.25mm 111 W/m2
14:24 45.1 °F /  7.3 °C 41.7 °F /  5.4 °C 29.97in /  1014.8hPa South 4mph /  6.4km/h 10mph /  16.1km/h 88% 0.02in /  0.51mm 116 W/m2
14:29 45 °F /  7.2 °C 41.5 °F /  5.3 °C 29.97in /  1014.8hPa South 7.4mph /  11.9km/h 11mph /  17.7km/h 87.4% 0.02in /  0.51mm 142 W/m2
14:34 45 °F /  7.2 °C 41.4 °F /  5.2 °C 29.97in /  1014.8hPa South 6.5mph /  10.5km/h 16mph /  25.7km/h 87% 0.02in /  0.51mm 169 W/m2
14:39 45 °F /  7.2 °C 41.2 °F /  5.1 °C 29.96in /  1014.4hPa SSE 4.5mph /  7.2km/h 14mph /  22.5km/h 86.6% 0.02in /  0.51mm 176 W/m2
14:43 44.8 °F /  7.1 °C 40.8 °F /  4.9 °C 29.96in /  1014.4hPa SSE 6.3mph /  10.1km/h 12mph /  19.3km/h 86% 0.02in /  0.51mm 176 W/m2
14:49 45 °F /  7.2 °C 41 °F /  5 °C 29.96in /  1014.4hPa SSE 4.5mph /  7.2km/h 12mph /  19.3km/h 86% 0.02in /  0.51mm 162 W/m2
14:54 45 °F /  7.2 °C 41 °F /  5 °C 29.96in /  1014.4hPa South 5.4mph /  8.7km/h 10mph /  16.1km/h 86% 0.02in /  0.51mm 149 W/m2
14:59 45 °F /  7.2 °C 41 °F /  5 °C 29.96in /  1014.4hPa SSE 4.8mph /  7.7km/h 9mph /  14.5km/h 86% 0.03in /  0.76mm 144 W/m2
15:04 45 °F /  7.2 °C 41 °F /  5 °C 29.96in /  1014.4hPa SSE 4.8mph /  7.7km/h 10mph /  16.1km/h 86% 0.03in /  0.76mm 162 W/m2
15:09 45 °F /  7.2 °C 40.7 °F /  4.8 °C 29.95in /  1014.1hPa SSE 7.2mph /  11.6km/h 13mph /  20.9km/h 85.2% 0.02in /  0.51mm 167 W/m2
15:14 45 °F /  7.2 °C 40.6 °F /  4.8 °C 29.95in /  1014.1hPa SSE 6mph /  9.7km/h 13mph /  20.9km/h 85% 0.02in /  0.51mm 151 W/m2
15:19 45.1 °F /  7.3 °C 40.8 °F /  4.9 °C 29.95in /  1014.1hPa SSE 4.4mph /  7.1km/h 9mph /  14.5km/h 85% 0.02in /  0.51mm 178 W/m2
15:24 45.2 °F /  7.3 °C 40.9 °F /  4.9 °C 29.94in /  1013.8hPa SE 4.5mph /  7.2km/h 12mph /  19.3km/h 85% 0.02in /  0.51mm 176 W/m2
15:29 45.3 °F /  7.4 °C 41.1 °F /  5.1 °C 29.93in /  1013.4hPa SE 4.6mph /  7.4km/h 9mph /  14.5km/h 85.2% 0.02in /  0.51mm 139 W/m2
15:34 45.3 °F /  7.4 °C 41.4 °F /  5.2 °C 29.93in /  1013.4hPa SE 4.6mph /  7.4km/h 12mph /  19.3km/h 86% 0.02in /  0.51mm 127 W/m2
15:39 45.3 °F /  7.4 °C 41.4 °F /  5.2 °C 29.93in /  1013.4hPa SSE 5.8mph /  9.3km/h 11mph /  17.7km/h 86% 0.01in /  0.25mm 83 W/m2
15:44 45.1 °F /  7.3 °C 41.2 °F /  5.1 °C 29.93in /  1013.4hPa SSE 5.9mph /  9.5km/h 14mph /  22.5km/h 86% 0.02in /  0.51mm 74 W/m2
15:49 45.1 °F /  7.3 °C 41.2 °F /  5.1 °C 29.93in /  1013.4hPa SE 4.7mph /  7.6km/h 13mph /  20.9km/h 86% 0.02in /  0.51mm 60 W/m2
15:54 45.1 °F /  7.3 °C 41.3 °F /  5.2 °C 29.93in /  1013.4hPa SSE 6.7mph /  10.8km/h 11mph /  17.7km/h 86.4% 0.02in /  0.51mm 42 W/m2
15:59 45 °F /  7.2 °C 41.4 °F /  5.2 °C 29.93in /  1013.4hPa SE 7.9mph /  12.7km/h 14mph /  22.5km/h 87% 0.02in /  0.51mm 40 W/m2
16:04 44.9 °F /  7.2 °C 41.3 °F /  5.2 °C 29.92in /  1013.1hPa SSE 5.2mph /  8.4km/h 11mph /  17.7km/h 87% 0.02in /  0.51mm 58 W/m2
16:09 44.8 °F /  7.1 °C 41.2 °F /  5.1 °C 29.92in /  1013.1hPa SSE 4.8mph /  7.7km/h 10mph /  16.1km/h 87% 0.02in /  0.51mm 70 W/m2
16:13 44.8 °F /  7.1 °C 41.3 °F /  5.2 °C 29.92in /  1013.1hPa SSE 4.4mph /  7.1km/h 9mph /  14.5km/h 87.5% 0.02in /  0.51mm 74 W/m2
16:19 44.8 °F /  7.1 °C 41.4 °F /  5.2 °C 29.92in /  1013.1hPa SE 5.2mph /  8.4km/h 9mph /  14.5km/h 88% 0.02in /  0.51mm 65 W/m2
16:24 44.8 °F /  7.1 °C 41.4 °F /  5.2 °C 29.92in /  1013.1hPa SSE 7.4mph /  11.9km/h 13mph /  20.9km/h 88% 0.02in /  0.51mm 60 W/m2
16:29 44.8 °F /  7.1 °C 41.2 °F /  5.1 °C 29.92in /  1013.1hPa SE 6.6mph /  10.6km/h 13mph /  20.9km/h 87% 0.02in /  0.51mm 69 W/m2
16:34 44.7 °F /  7.1 °C 41.1 °F /  5.1 °C 29.92in /  1013.1hPa SSE 7.3mph /  11.7km/h 11mph /  17.7km/h 87% 0.02in /  0.51mm 79 W/m2
16:39 44.6 °F /  7 °C 41 °F /  5 °C 29.92in /  1013.1hPa SE 4.6mph /  7.4km/h 11mph /  17.7km/h 87% 0.02in /  0.51mm 77 W/m2
16:44 44.7 °F /  7.1 °C 41.1 °F /  5.1 °C 29.92in /  1013.1hPa SSE 6.2mph /  10km/h 12mph /  19.3km/h 87% 0.02in /  0.51mm 58 W/m2
16:49 44.6 °F /  7 °C 41 °F /  5 °C 29.91in /  1012.8hPa SSE 5.4mph /  8.7km/h 10mph /  16.1km/h 87% 0.02in /  0.51mm 47 W/m2
16:54 44.6 °F /  7 °C 41 °F /  5 °C 29.91in /  1012.8hPa SE 5.5mph /  8.9km/h 11mph /  17.7km/h 87% 0.02in /  0.51mm 44 W/m2
16:59 44.5 °F /  6.9 °C 40.9 °F /  4.9 °C 29.91in /  1012.8hPa South 8.4mph /  13.5km/h 18mph /  29km/h 87% 0.02in /  0.51mm 44 W/m2
17:04 44.4 °F /  6.9 °C 40.8 °F /  4.9 °C 29.91in /  1012.8hPa SSE 7.5mph /  12.1km/h 17mph /  27.4km/h 87% 0.02in /  0.51mm 35 W/m2
17:09 44.4 °F /  6.9 °C 40.8 °F /  4.9 °C 29.91in /  1012.8hPa SE 5.4mph /  8.7km/h 12mph /  19.3km/h 87% 0.02in /  0.51mm 26 W/m2
17:14 44.4 °F /  6.9 °C 40.8 °F /  4.9 °C 29.90in /  1012.4hPa SSE 5.8mph /  9.3km/h 13mph /  20.9km/h 87% 0.01in /  0.25mm 16 W/m2
17:19 44.4 °F /  6.9 °C 40.8 °F /  4.9 °C 29.90in /  1012.4hPa SE 5.8mph /  9.3km/h 14mph /  22.5km/h 87% 0.01in /  0.25mm 18 W/m2
17:24 44.3 °F /  6.8 °C 40.6 °F /  4.8 °C 29.90in /  1012.4hPa SSE 6.7mph /  10.8km/h 14mph /  22.5km/h 86.6% 0.01in /  0.25mm 19 W/m2
17:29 44.4 °F /  6.9 °C 40.5 °F /  4.7 °C 29.90in /  1012.4hPa SSE 7.4mph /  11.9km/h 17mph /  27.4km/h 86% 0.01in /  0.25mm 19 W/m2
17:33 44.4 °F /  6.9 °C 40.5 °F /  4.7 °C 29.90in /  1012.4hPa SSE 6mph /  9.7km/h 16mph /  25.7km/h 86% 0.01in /  0.25mm 14 W/m2
17:39 44.4 °F /  6.9 °C 40.5 °F /  4.7 °C 29.89in /  1012.1hPa SSE 7.8mph /  12.6km/h 13mph /  20.9km/h 86% 0.01in /  0.25mm 14 W/m2
17:44 44.4 °F /  6.9 °C 40.5 °F /  4.7 °C 29.89in /  1012.1hPa SSE 4.7mph /  7.6km/h 14mph /  22.5km/h 86% 0.01in /  0.25mm 12 W/m2
17:49 44.4 °F /  6.9 °C 40.5 °F /  4.7 °C 29.89in /  1012.1hPa SSE 5.9mph /  9.5km/h 14mph /  22.5km/h 86% 0.01in /  0.25mm 7 W/m2
17:54 44.4 °F /  6.9 °C 40.5 °F /  4.7 °C 29.89in /  1012.1hPa SSE 5.7mph /  9.2km/h 12mph /  19.3km/h 86% 0.00in /  0mm 7 W/m2
17:59 44.4 °F /  6.9 °C 40.5 °F /  4.7 °C 29.89in /  1012.1hPa SSE 5mph /  8km/h 13mph /  20.9km/h 86% 0.00in /  0mm 5 W/m2
18:04 44.4 °F /  6.9 °C 40.6 °F /  4.8 °C 29.89in /  1012.1hPa SSE 8.5mph /  13.7km/h 16mph /  25.7km/h 86.2% 0.00in /  0mm 0 W/m2
18:09 44.6 °F /  7 °C 40.8 °F /  4.9 °C 29.89in /  1012.1hPa South 6mph /  9.7km/h 13mph /  20.9km/h 86.6% 0.00in /  0mm 0 W/m2
18:14 44.6 °F /  7 °C 41 °F /  5 °C 29.89in /  1012.1hPa SSE 6.7mph /  10.8km/h 14mph /  22.5km/h 87% 0.00in /  0mm 0 W/m2
18:19 44.7 °F /  7.1 °C 41.1 °F /  5.1 °C 29.89in /  1012.1hPa SSE 7.8mph /  12.6km/h 12mph /  19.3km/h 87% 0.00in /  0mm 0 W/m2
18:24 44.7 °F /  7.1 °C 41.2 °F /  5.1 °C 29.89in /  1012.1hPa SSE 8.8mph /  14.2km/h 20mph /  32.2km/h 87.4% 0.00in /  0mm 0 W/m2
18:29 44.5 °F /  6.9 °C 41.2 °F /  5.1 °C 29.88in /  1011.7hPa SSE 7.8mph /  12.6km/h 13mph /  20.9km/h 88% 0.00in /  0mm 0 W/m2
18:34 44.4 °F /  6.9 °C 41.3 °F /  5.2 °C 29.89in /  1012.1hPa SSE 8mph /  12.9km/h 14mph /  22.5km/h 88.4% 0.01in /  0.25mm 0 W/m2
18:39 44.4 °F /  6.9 °C 41.4 °F /  5.2 °C 29.89in /  1012.1hPa SSE 9mph /  14.5km/h 16mph /  25.7km/h 89% 0.01in /  0.25mm 0 W/m2
18:44 44.4 °F /  6.9 °C 41.4 °F /  5.2 °C 29.88in /  1011.7hPa SSE 6mph /  9.7km/h 12mph /  19.3km/h 89% 0.01in /  0.25mm 0 W/m2
18:49 44.4 °F /  6.9 °C 41.5 °F /  5.3 °C 29.88in /  1011.7hPa South 7.1mph /  11.4km/h 15mph /  24.1km/h 89.4% 0.01in /  0.25mm 0 W/m2
18:54 44.4 °F /  6.9 °C 41.7 °F /  5.4 °C 29.88in /  1011.7hPa SSE 6.6mph /  10.6km/h 12mph /  19.3km/h 90% 0.01in /  0.25mm 0 W/m2
18:59 44.3 °F /  6.8 °C 41.6 °F /  5.3 °C 29.88in /  1011.7hPa SSE 5.4mph /  8.7km/h 11mph /  17.7km/h 90% 0.01in /  0.25mm 0 W/m2
19:04 44.2 °F /  6.8 °C 41.6 °F /  5.3 °C 29.88in /  1011.7hPa SE 6.2mph /  10km/h 12mph /  19.3km/h 90.4% 0.02in /  0.51mm 0 W/m2
19:09 44.2 °F /  6.8 °C 41.7 °F /  5.4 °C 29.88in /  1011.7hPa SSE 6.4mph /  10.3km/h 13mph /  20.9km/h 91% 0.02in /  0.51mm 0 W/m2
19:14 44.2 °F /  6.8 °C 41.7 °F /  5.4 °C 29.88in /  1011.7hPa SE 7.5mph /  12.1km/h 11mph /  17.7km/h 91% 0.03in /  0.76mm 0 W/m2
19:19 44.2 °F /  6.8 °C 41.7 °F /  5.4 °C 29.88in /  1011.7hPa SSE 7.3mph /  11.7km/h 16mph /  25.7km/h 91% 0.04in /  1.02mm 0 W/m2
19:24 44.3 °F /  6.8 °C 41.8 °F /  5.4 °C 29.88in /  1011.7hPa SSE 8.2mph /  13.2km/h 16mph /  25.7km/h 91% 0.04in /  1.02mm 0 W/m2
19:29 44.4 °F /  6.9 °C 42 °F /  5.6 °C 29.88in /  1011.7hPa SSE 6.6mph /  10.6km/h 13mph /  20.9km/h 91.4% 0.04in /  1.02mm 0 W/m2
19:34 44.4 °F /  6.9 °C 42.3 °F /  5.7 °C 29.87in /  1011.4hPa SSE 8.4mph /  13.5km/h 13mph /  20.9km/h 92% 0.04in /  1.02mm 0 W/m2
19:39 44.4 °F /  6.9 °C 42.3 °F /  5.7 °C 29.87in /  1011.4hPa SSE 8.8mph /  14.2km/h 13mph /  20.9km/h 92% 0.04in /  1.02mm 0 W/m2
19:44 44.6 °F /  7 °C 42.4 °F /  5.8 °C 29.86in /  1011.1hPa SSE 8.9mph /  14.3km/h 16mph /  25.7km/h 92% 0.04in /  1.02mm 0 W/m2
19:49 44.6 °F /  7 °C 42.4 °F /  5.8 °C 29.86in /  1011.1hPa SSE 6.4mph /  10.3km/h 13mph /  20.9km/h 92% 0.04in /  1.02mm 0 W/m2
19:54 44.8 °F /  7.1 °C 42.6 °F /  5.9 °C 29.86in /  1011.1hPa South 6.8mph /  10.9km/h 15mph /  24.1km/h 92% 0.04in /  1.02mm 0 W/m2
19:59 44.8 °F /  7.1 °C 42.6 °F /  5.9 °C 29.86in /  1011.1hPa SSE 7.4mph /  11.9km/h 14mph /  22.5km/h 92% 0.05in /  1.27mm 0 W/m2
20:04 44.8 °F /  7.1 °C 42.8 °F /  6 °C 29.86in /  1011.1hPa South 8mph /  12.9km/h 15mph /  24.1km/h 92.8% 0.05in /  1.27mm 0 W/m2
20:09 45 °F /  7.2 °C 42.8 °F /  6 °C 29.86in /  1011.1hPa SSE 9.6mph /  15.4km/h 17mph /  27.4km/h 92% 0.04in /  1.02mm 0 W/m2
20:14 45 °F /  7.2 °C 43 °F /  6.1 °C 29.86in /  1011.1hPa SSE 7.6mph /  12.2km/h 14mph /  22.5km/h 93% 0.03in /  0.76mm 0 W/m2
20:19 45 °F /  7.2 °C 43 °F /  6.1 °C 29.85in /  1010.7hPa SSE 6mph /  9.7km/h 15mph /  24.1km/h 93% 0.02in /  0.51mm 0 W/m2
20:24 45 °F /  7.2 °C 43 °F /  6.1 °C 29.85in /  1010.7hPa SSE 8mph /  12.9km/h 13mph /  20.9km/h 93% 0.02in /  0.51mm 0 W/m2
20:29 45 °F /  7.2 °C 43 °F /  6.1 °C 29.85in /  1010.7hPa SE 8.4mph /  13.5km/h 16mph /  25.7km/h 93% 0.02in /  0.51mm 0 W/m2
20:34 45 °F /  7.2 °C 43.1 °F /  6.2 °C 29.85in /  1010.7hPa SSE 7mph /  11.3km/h 15mph /  24.1km/h 93% 0.02in /  0.51mm 0 W/m2
20:39 45.1 °F /  7.3 °C 43.1 °F /  6.2 °C 29.85in /  1010.7hPa SE 7.4mph /  11.9km/h 18mph /  29km/h 93% 0.02in /  0.51mm 0 W/m2
20:44 45.1 °F /  7.3 °C 43.2 °F /  6.2 °C 29.85in /  1010.7hPa SE 7mph /  11.3km/h 17mph /  27.4km/h 93% 0.02in /  0.51mm 0 W/m2
20:49 45.1 °F /  7.3 °C 43.2 °F /  6.2 °C 29.85in /  1010.7hPa SE 10mph /  16.1km/h 15mph /  24.1km/h 93% 0.02in /  0.51mm 0 W/m2
20:54 45.2 °F /  7.3 °C 43.3 °F /  6.3 °C 29.85in /  1010.7hPa SSE 7mph /  11.3km/h 15mph /  24.1km/h 93% 0.02in /  0.51mm 0 W/m2
20:59 45.3 °F /  7.4 °C 43.3 °F /  6.3 °C 29.85in /  1010.7hPa SE 6.8mph /  10.9km/h 15mph /  24.1km/h 93% 0.02in /  0.51mm 0 W/m2
21:04 45.3 °F /  7.4 °C 43.3 °F /  6.3 °C 29.85in /  1010.7hPa SSE 7mph /  11.3km/h 12mph /  19.3km/h 93% 0.02in /  0.51mm 0 W/m2
21:09 45.4 °F /  7.4 °C 43.4 °F /  6.3 °C 29.84in /  1010.4hPa SSE 7.6mph /  12.2km/h 14mph /  22.5km/h 93% 0.02in /  0.51mm 0 W/m2
21:14 45.5 °F /  7.5 °C 43.5 °F /  6.4 °C 29.84in /  1010.4hPa SSE 6.4mph /  10.3km/h 11mph /  17.7km/h 93% 0.01in /  0.25mm 0 W/m2
21:19 45.5 °F /  7.5 °C 43.5 °F /  6.4 °C 29.84in /  1010.4hPa SSE 8mph /  12.9km/h 14mph /  22.5km/h 93% 0.01in /  0.25mm 0 W/m2
21:24 45.6 °F /  7.6 °C 43.6 °F /  6.4 °C 29.84in /  1010.4hPa SSE 6.4mph /  10.3km/h 12mph /  19.3km/h 93% 0.01in /  0.25mm 0 W/m2
21:29 45.7 °F /  7.6 °C 43.7 °F /  6.5 °C 29.84in /  1010.4hPa SSE 6.1mph /  9.8km/h 10mph /  16.1km/h 93% 0.01in /  0.25mm 0 W/m2
21:34 45.7 °F /  7.6 °C 43.7 °F /  6.5 °C 29.84in /  1010.4hPa SSE 5.4mph /  8.7km/h 14mph /  22.5km/h 93% 0.01in /  0.25mm 0 W/m2
21:39 45.8 °F /  7.7 °C 43.8 °F /  6.6 °C 29.84in /  1010.4hPa SE 6.2mph /  10km/h 10mph /  16.1km/h 93% 0.00in /  0mm 0 W/m2
21:44 45.9 °F /  7.7 °C 43.9 °F /  6.6 °C 29.83in /  1010hPa SSE 4.4mph /  7.1km/h 10mph /  16.1km/h 93% 0.00in /  0mm 0 W/m2
21:48 45.9 °F /  7.7 °C 43.9 °F /  6.6 °C 29.83in /  1010hPa SE 4.2mph /  6.8km/h 10mph /  16.1km/h 93% 0.00in /  0mm 0 W/m2
21:54 45.9 °F /  7.7 °C 43.9 °F /  6.6 °C 29.83in /  1010hPa SSE 4.1mph /  6.6km/h 9mph /  14.5km/h 93% 0.00in /  0mm 0 W/m2
21:59 45.9 °F /  7.7 °C 44 °F /  6.7 °C 29.83in /  1010hPa SE 3.9mph /  6.3km/h 8mph /  12.9km/h 93% 0.01in /  0.25mm 0 W/m2
22:04 46 °F /  7.8 °C 44.1 °F /  6.7 °C 29.83in /  1010hPa SSE 4.8mph /  7.7km/h 9mph /  14.5km/h 93% 0.01in /  0.25mm 0 W/m2
22:09 46 °F /  7.8 °C 44.1 °F /  6.7 °C 29.83in /  1010hPa SSE 4mph /  6.4km/h 9mph /  14.5km/h 93% 0.01in /  0.25mm 0 W/m2
22:14 46.1 °F /  7.8 °C 44.5 °F /  6.9 °C 29.82in /  1009.7hPa SSE 3.2mph /  5.1km/h 7mph /  11.3km/h 94% 0.01in /  0.25mm 0 W/m2
22:19 46.2 °F /  7.9 °C 44.6 °F /  7 °C 29.82in /  1009.7hPa SE 2.4mph /  3.9km/h 8mph /  12.9km/h 94% 0.01in /  0.25mm 0 W/m2
22:24 46.2 °F /  7.9 °C 44.6 °F /  7 °C 29.82in /  1009.7hPa SSE 4.2mph /  6.8km/h 7mph /  11.3km/h 94% 0.01in /  0.25mm 0 W/m2
22:29 46.6 °F /  8.1 °C 45 °F /  7.2 °C 29.82in /  1009.7hPa SE 2.7mph /  4.3km/h 7mph /  11.3km/h 94% 0.01in /  0.25mm 0 W/m2
22:34 46.6 °F /  8.1 °C 45 °F /  7.2 °C 29.82in /  1009.7hPa SE 2.9mph /  4.7km/h 9mph /  14.5km/h 94% 0.01in /  0.25mm 0 W/m2
22:39 46.8 °F /  8.2 °C 45.1 °F /  7.3 °C 29.82in /  1009.7hPa SSE 3mph /  4.8km/h 9mph /  14.5km/h 94% 0.01in /  0.25mm 0 W/m2
22:44 46.8 °F /  8.2 °C 45.2 °F /  7.3 °C 29.82in /  1009.7hPa SE 2.8mph /  4.5km/h 6mph /  9.7km/h 94% 0.01in /  0.25mm 0 W/m2
22:49 46.9 °F /  8.3 °C 45.3 °F /  7.4 °C 29.81in /  1009.4hPa SSE 2.8mph /  4.5km/h 7mph /  11.3km/h 94% 0.01in /  0.25mm 0 W/m2
22:54 47 °F /  8.3 °C 45.4 °F /  7.4 °C 29.81in /  1009.4hPa SE 2.5mph /  4km/h 6mph /  9.7km/h 94% 0.01in /  0.25mm 0 W/m2
22:59 47.2 °F /  8.4 °C 45.6 °F /  7.6 °C 29.81in /  1009.4hPa SSE 1.7mph /  2.7km/h 4mph /  6.4km/h 94% 0.01in /  0.25mm 0 W/m2
23:04 47.4 °F /  8.6 °C 45.8 °F /  7.7 °C 29.81in /  1009.4hPa SSE 2.1mph /  3.4km/h 4mph /  6.4km/h 94% 0.00in /  0mm 0 W/m2
23:09 47.7 °F /  8.7 °C 46.1 °F /  7.8 °C 29.81in /  1009.4hPa South 2.5mph /  4km/h 7mph /  11.3km/h 94% 0.00in /  0mm 0 W/m2
23:14 48 °F /  8.9 °C 46.4 °F /  8 °C 29.81in /  1009.4hPa South 1.9mph /  3.1km/h 5mph /  8km/h 94% 0.00in /  0mm 0 W/m2
23:19 48.4 °F /  9.1 °C 46.8 °F /  8.2 °C 29.81in /  1009.4hPa SSW 2.5mph /  4km/h 6mph /  9.7km/h 94% 0.00in /  0mm 0 W/m2
23:24 48.5 °F /  9.2 °C 46.9 °F /  8.3 °C 29.80in /  1009hPa South 5.1mph /  8.2km/h 13mph /  20.9km/h 94% 0.00in /  0mm 0 W/m2
23:29 48.7 °F /  9.3 °C 47.1 °F /  8.4 °C 29.80in /  1009hPa SSW 3.1mph /  5km/h 8mph /  12.9km/h 94% 0.00in /  0mm 0 W/m2
23:34 48.7 °F /  9.3 °C 47.1 °F /  8.4 °C 29.80in /  1009hPa SSW 6.4mph /  10.3km/h 11mph /  17.7km/h 94% 0.00in /  0mm 0 W/m2
23:39 48.9 °F /  9.4 °C 47.3 °F /  8.5 °C 29.80in /  1009hPa SSW 3.1mph /  5km/h 9mph /  14.5km/h 94% 0.00in /  0mm 0 W/m2
23:44 48.8 °F /  9.3 °C 47.2 °F /  8.4 °C 29.80in /  1009hPa SSW 3.3mph /  5.3km/h 7mph /  11.3km/h 94% 0.00in /  0mm 0 W/m2
23:49 48.7 °F /  9.3 °C 47.1 °F /  8.4 °C 29.80in /  1009hPa South 2.8mph /  4.5km/h 8mph /  12.9km/h 94% 0.00in /  0mm 0 W/m2
23:54 48.7 °F /  9.3 °C 47.1 °F /  8.4 °C 29.80in /  1009hPa SSW 4.5mph /  7.2km/h 8mph /  12.9km/h 94% 0.00in /  0mm 0 W/m2
23:59 48.8 °F /  9.3 °C 47.2 °F /  8.4 °C 29.80in /  1009hPa SSW 4.2mph /  6.8km/h 10mph /  16.1km/h 94% 0.00in /  0mm 0 W/m2
Bath Spa Weather
Compliments of Weather Underground - 2 mb